طرابلس, ليبيا

01:42 AM EET on مارس 27, 2015 (GMT +0200)
Mitiga | | Change Station
CLOSE
Current Station
Airport
Location: Tripoli Mitiga,
Elevation: 36 ft
Nearby Weather Stations

Elev 36 ft 32.89 °N, 13.28 °E | Updated 52 minutes ago

Scattered Clouds
غيوم متفرقة
61 °F
Feels Like 61 °F
N
5
ريح متغير ريح from غرب

هذا اليوم
High -- | Low -- °F
--% Chance of Precip.
Yesterday
High -- | Low -- °F
Precip. -- في
7:02 AM 7:23 PM
الهلال الأول, 47% visible
الضغط 29.80 في
وضوح الرؤية 3.7 أميال
سحابات غيوم متفرقة 2500 ft
نقطة الندى 46 °F
الرطوبة 59%
Rainfall 0.00 في
عمق الثلج Not available.
الأشعة فوق البنفسجية 0 out of 12
Pollen Not available.
جودة الهواء Not available.
Flu Activity Not available.
METAR HLLM 262250Z 26004KT 6000 SCT025 16/08 Q1009

More Conditions Fewer Conditions

الضغط 29.80 في
وضوح الرؤية 3.7 أميال
سحابات غيوم متفرقة 2500 ft
نقطة الندى 46 °F
الرطوبة 59%
Rainfall 0.00 في
عمق الثلج Not available.
الأشعة فوق البنفسجية 0 out of 12
Pollen Not available.
جودة الهواء Not available.
Flu Activity Not available.
METAR HLLM 262250Z 26004KT 6000 SCT025 16/08 Q1009

More Conditions Fewer Conditions

10-Day Weather Forecast

Almanac

علم الفلك

Mar. 27, 2015 Rise Set
Actual Time
Civil Twilight
Nautical Twilight
Astronomical Twilight
قمر
Length Of Visible Light
طول الیوم
Tomorrow will be .
, % of the Moon is Illuminated

Today's Extremes

Country Highs Country Lows

Community

WunderPhotos

Upload Photos

1,808,643 photos uploaded!

WunderBlogs® & News

Nearby

جودة الهواء

  جودة الهواء AQ Index Pollutant
Not available.

عمق الثلج

Station Depth Elevation

Earthquake Activity

City Distance Mag. Time & Date
Minimum magnitude displayed is 2.5.

Coastal Water Temperatures

مكان درجات الحرارة

Stations

Nearby Weather Stations

Station Location الحرارة رياح باردة نقطة الندى الرطوبة ريح Precip. Elev تحديث Type